sensor_id;sensor_type;location;lat;lon;timestamp;pressure;altitude;pressure_sealevel;temperature;humidity
21988;BME280;11158;53.404;-1.510;2022-11-10T00:00:10;99890.03;;;13.14;62.67
21988;BME280;11158;53.404;-1.510;2022-11-10T00:02:36;99899.50;;;13.16;62.36
21988;BME280;11158;53.404;-1.510;2022-11-10T00:05:02;99893.06;;;12.72;63.35
21988;BME280;11158;53.404;-1.510;2022-11-10T00:07:28;99909.53;;;12.83;63.58
21988;BME280;11158;53.404;-1.510;2022-11-10T00:09:54;99901.13;;;12.72;63.79
21988;BME280;11158;53.404;-1.510;2022-11-10T00:12:21;99894.97;;;13.17;62.23
21988;BME280;11158;53.404;-1.510;2022-11-10T00:14:47;99890.31;;;12.99;62.98
21988;BME280;11158;53.404;-1.510;2022-11-10T00:17:34;99885.91;;;12.53;64.93
21988;BME280;11158;53.404;-1.510;2022-11-10T00:19:59;99888.53;;;12.66;64.61
21988;BME280;11158;53.404;-1.510;2022-11-10T00:22:25;99892.41;;;12.84;63.58
21988;BME280;11158;53.404;-1.510;2022-11-10T00:24:53;99890.03;;;12.62;64.74
21988;BME280;11158;53.404;-1.510;2022-11-10T00:27:19;99897.00;;;12.63;64.85
21988;BME280;11158;53.404;-1.510;2022-11-10T00:29:45;99900.78;;;12.35;65.73
21988;BME280;11158;53.404;-1.510;2022-11-10T00:32:10;99904.25;;;12.63;64.90
21988;BME280;11158;53.404;-1.510;2022-11-10T00:34:36;99907.53;;;12.71;64.91
21988;BME280;11158;53.404;-1.510;2022-11-10T00:37:02;99902.63;;;12.42;66.02
21988;BME280;11158;53.404;-1.510;2022-11-10T00:39:29;99917.41;;;12.77;64.95
21988;BME280;11158;53.404;-1.510;2022-11-10T00:42:00;99916.69;;;13.02;63.74
21988;BME280;11158;53.404;-1.510;2022-11-10T00:44:26;99925.38;;;13.04;63.71
21988;BME280;11158;53.404;-1.510;2022-11-10T00:46:52;99928.53;;;12.74;64.82
21988;BME280;11158;53.404;-1.510;2022-11-10T00:49:18;99928.56;;;13.33;63.06
21988;BME280;11158;53.404;-1.510;2022-11-10T00:51:44;99937.34;;;13.02;64.51
21988;BME280;11158;53.404;-1.510;2022-11-10T00:54:10;99947.00;;;13.16;64.12
21988;BME280;11158;53.404;-1.510;2022-11-10T00:56:36;99945.38;;;13.08;64.16
21988;BME280;11158;53.404;-1.510;2022-11-10T00:59:02;99947.28;;;12.94;64.96
21988;BME280;11158;53.404;-1.510;2022-11-10T01:01:27;99954.91;;;12.91;65.17
21988;BME280;11158;53.404;-1.510;2022-11-10T01:03:53;99966.13;;;13.26;64.20
21988;BME280;11158;53.404;-1.510;2022-11-10T01:06:20;99963.13;;;13.09;64.68
21988;BME280;11158;53.404;-1.510;2022-11-10T01:08:46;99976.00;;;13.52;63.00
21988;BME280;11158;53.404;-1.510;2022-11-10T01:11:24;99987.09;;;13.62;63.35
21988;BME280;11158;53.404;-1.510;2022-11-10T01:13:51;99998.78;;;14.38;60.86
21988;BME280;11158;53.404;-1.510;2022-11-10T01:16:23;99997.22;;;14.31;60.93
21988;BME280;11158;53.404;-1.510;2022-11-10T01:18:49;100001.31;;;14.65;59.64
21988;BME280;11158;53.404;-1.510;2022-11-10T01:21:15;99995.66;;;14.16;60.87
21988;BME280;11158;53.404;-1.510;2022-11-10T01:23:40;99991.63;;;14.82;59.32
21988;BME280;11158;53.404;-1.510;2022-11-10T01:26:06;99996.44;;;14.49;60.25
21988;BME280;11158;53.404;-1.510;2022-11-10T01:28:33;99999.94;;;14.56;60.33
21988;BME280;11158;53.404;-1.510;2022-11-10T01:31:10;99991.16;;;14.67;59.66
21988;BME280;11158;53.404;-1.510;2022-11-10T01:33:37;99993.91;;;14.54;59.79
21988;BME280;11158;53.404;-1.510;2022-11-10T01:36:03;99987.16;;;14.95;58.86
21988;BME280;11158;53.404;-1.510;2022-11-10T01:38:31;100001.06;;;14.92;58.35
21988;BME280;11158;53.404;-1.510;2022-11-10T01:40:59;99984.81;;;14.61;59.36
21988;BME280;11158;53.404;-1.510;2022-11-10T01:43:26;99979.28;;;14.75;59.24
21988;BME280;11158;53.404;-1.510;2022-11-10T01:51:34;99983.59;;;14.57;60.01
21988;BME280;11158;53.404;-1.510;2022-11-10T01:54:03;99981.09;;;14.56;59.39
21988;BME280;11158;53.404;-1.510;2022-11-10T01:56:33;99983.38;;;14.77;58.65
21988;BME280;11158;53.404;-1.510;2022-11-10T01:59:05;99991.88;;;14.56;59.44
21988;BME280;11158;53.404;-1.510;2022-11-10T02:01:33;99987.31;;;14.50;59.82
21988;BME280;11158;53.404;-1.510;2022-11-10T02:04:03;99990.72;;;14.88;58.47
21988;BME280;11158;53.404;-1.510;2022-11-10T02:06:33;99998.50;;;14.78;59.02
21988;BME280;11158;53.404;-1.510;2022-11-10T02:08:59;100002.72;;;14.68;59.02
21988;BME280;11158;53.404;-1.510;2022-11-10T02:11:26;99997.91;;;14.19;60.63
21988;BME280;11158;53.404;-1.510;2022-11-10T02:13:53;99992.94;;;14.55;60.15
21988;BME280;11158;53.404;-1.510;2022-11-10T02:16:20;99997.94;;;14.44;60.42
21988;BME280;11158;53.404;-1.510;2022-11-10T02:18:47;99988.72;;;14.59;59.81
21988;BME280;11158;53.404;-1.510;2022-11-10T02:21:18;99988.34;;;14.80;58.98
21988;BME280;11158;53.404;-1.510;2022-11-10T02:23:47;99969.66;;;15.22;57.70
21988;BME280;11158;53.404;-1.510;2022-11-10T02:26:15;99974.88;;;15.36;57.33
21988;BME280;11158;53.404;-1.510;2022-11-10T02:28:42;99974.28;;;14.97;58.57
21988;BME280;11158;53.404;-1.510;2022-11-10T02:31:07;99983.91;;;14.68;60.14
21988;BME280;11158;53.404;-1.510;2022-11-10T02:33:34;99973.81;;;14.81;59.68
21988;BME280;11158;53.404;-1.510;2022-11-10T02:36:00;99960.63;;;14.98;59.13
21988;BME280;11158;53.404;-1.510;2022-11-10T02:38:26;99976.84;;;15.10;58.36
21988;BME280;11158;53.404;-1.510;2022-11-10T02:40:52;99979.03;;;14.58;60.69
21988;BME280;11158;53.404;-1.510;2022-11-10T02:43:19;99975.47;;;15.56;57.92
21988;BME280;11158;53.404;-1.510;2022-11-10T02:45:45;99983.25;;;15.95;56.06
21988;BME280;11158;53.404;-1.510;2022-11-10T02:48:12;99983.00;;;15.66;57.47
21988;BME280;11158;53.404;-1.510;2022-11-10T02:50:37;99990.13;;;15.79;56.57
21988;BME280;11158;53.404;-1.510;2022-11-10T02:53:03;100006.00;;;15.32;57.71
21988;BME280;11158;53.404;-1.510;2022-11-10T02:55:29;99998.91;;;15.37;58.26
21988;BME280;11158;53.404;-1.510;2022-11-10T02:57:55;100007.19;;;15.36;58.62
21988;BME280;11158;53.404;-1.510;2022-11-10T03:00:21;100008.97;;;15.60;58.15
21988;BME280;11158;53.404;-1.510;2022-11-10T03:02:47;100012.19;;;15.87;57.29
21988;BME280;11158;53.404;-1.510;2022-11-10T03:05:12;100015.97;;;16.40;55.89
21988;BME280;11158;53.404;-1.510;2022-11-10T03:07:38;100023.38;;;16.45;55.40
21988;BME280;11158;53.404;-1.510;2022-11-10T03:10:05;100027.19;;;16.37;55.79
21988;BME280;11158;53.404;-1.510;2022-11-10T03:12:31;100019.50;;;16.52;55.33
21988;BME280;11158;53.404;-1.510;2022-11-10T03:14:57;100010.06;;;15.89;57.11
21988;BME280;11158;53.404;-1.510;2022-11-10T03:17:23;100008.34;;;15.95;57.42
21988;BME280;11158;53.404;-1.510;2022-11-10T03:19:48;100010.75;;;15.85;57.84
21988;BME280;11158;53.404;-1.510;2022-11-10T03:22:14;100004.81;;;16.37;56.56
21988;BME280;11158;53.404;-1.510;2022-11-10T03:24:41;100010.19;;;16.25;56.84
21988;BME280;11158;53.404;-1.510;2022-11-10T03:27:07;100004.00;;;16.48;56.49
21988;BME280;11158;53.404;-1.510;2022-11-10T03:29:32;100012.22;;;16.41;56.13
21988;BME280;11158;53.404;-1.510;2022-11-10T03:31:58;100009.50;;;15.50;59.79
21988;BME280;11158;53.404;-1.510;2022-11-10T03:34:24;100007.38;;;15.89;58.90
21988;BME280;11158;53.404;-1.510;2022-11-10T03:36:49;100009.28;;;16.31;57.20
21988;BME280;11158;53.404;-1.510;2022-11-10T03:39:15;99993.09;;;16.54;56.59
21988;BME280;11158;53.404;-1.510;2022-11-10T03:41:41;100007.13;;;16.33;57.05
21988;BME280;11158;53.404;-1.510;2022-11-10T03:44:06;100004.44;;;15.42;60.36
21988;BME280;11158;53.404;-1.510;2022-11-10T03:46:33;99996.44;;;15.84;59.23
21988;BME280;11158;53.404;-1.510;2022-11-10T03:48:59;100007.75;;;15.93;59.36
21988;BME280;11158;53.404;-1.510;2022-11-10T03:51:24;99995.59;;;16.02;59.14
21988;BME280;11158;53.404;-1.510;2022-11-10T03:53:50;100007.00;;;16.16;58.52
21988;BME280;11158;53.404;-1.510;2022-11-10T03:56:16;99996.31;;;16.09;58.41
21988;BME280;11158;53.404;-1.510;2022-11-10T03:58:41;99991.47;;;16.00;58.65
21988;BME280;11158;53.404;-1.510;2022-11-10T04:01:07;100000.16;;;16.02;58.77
21988;BME280;11158;53.404;-1.510;2022-11-10T04:03:33;99999.75;;;15.68;59.50
21988;BME280;11158;53.404;-1.510;2022-11-10T04:05:59;100013.84;;;16.00;59.18
21988;BME280;11158;53.404;-1.510;2022-11-10T04:08:43;100003.72;;;15.84;59.39
21988;BME280;11158;53.404;-1.510;2022-11-10T04:11:25;100005.81;;;15.82;59.43
21988;BME280;11158;53.404;-1.510;2022-11-10T04:14:09;99997.00;;;16.05;58.85
21988;BME280;11158;53.404;-1.510;2022-11-10T04:16:53;100002.53;;;15.61;60.15
21988;BME280;11158;53.404;-1.510;2022-11-10T04:19:19;100001.16;;;15.89;59.29
21988;BME280;11158;53.404;-1.510;2022-11-10T04:21:45;100005.69;;;15.77;59.94
21988;BME280;11158;53.404;-1.510;2022-11-10T04:24:11;100000.53;;;15.75;59.86
21988;BME280;11158;53.404;-1.510;2022-11-10T04:26:37;99997.13;;;15.80;59.55
21988;BME280;11158;53.404;-1.510;2022-11-10T04:29:05;100000.97;;;15.72;60.07
21988;BME280;11158;53.404;-1.510;2022-11-10T04:31:34;99996.22;;;15.86;59.36
21988;BME280;11158;53.404;-1.510;2022-11-10T04:34:03;99991.78;;;15.06;61.80
21988;BME280;11158;53.404;-1.510;2022-11-10T04:36:32;99985.81;;;15.22;61.39
21988;BME280;11158;53.404;-1.510;2022-11-10T04:38:58;99973.94;;;15.79;59.81
21988;BME280;11158;53.404;-1.510;2022-11-10T04:41:25;99980.63;;;15.76;60.17
21988;BME280;11158;53.404;-1.510;2022-11-10T04:43:51;99982.22;;;15.47;60.97
21988;BME280;11158;53.404;-1.510;2022-11-10T04:46:25;99987.53;;;15.17;62.36
21988;BME280;11158;53.404;-1.510;2022-11-10T04:48:52;99995.34;;;15.55;60.48
21988;BME280;11158;53.404;-1.510;2022-11-10T04:51:19;99991.03;;;15.73;60.07
21988;BME280;11158;53.404;-1.510;2022-11-10T04:53:45;100002.53;;;15.61;60.34
21988;BME280;11158;53.404;-1.510;2022-11-10T04:56:15;100009.34;;;15.64;59.65
21988;BME280;11158;53.404;-1.510;2022-11-10T04:58:42;100003.63;;;15.90;59.14
21988;BME280;11158;53.404;-1.510;2022-11-10T05:01:17;100011.63;;;15.48;60.11
21988;BME280;11158;53.404;-1.510;2022-11-10T05:03:46;100014.97;;;16.11;58.81
21988;BME280;11158;53.404;-1.510;2022-11-10T05:06:12;100014.25;;;16.16;58.42
21988;BME280;11158;53.404;-1.510;2022-11-10T05:08:40;100024.56;;;16.19;58.60
21988;BME280;11158;53.404;-1.510;2022-11-10T05:11:06;100021.38;;;15.80;59.25
21988;BME280;11158;53.404;-1.510;2022-11-10T05:13:32;100028.41;;;15.99;58.87
21988;BME280;11158;53.404;-1.510;2022-11-10T05:15:58;100018.59;;;15.86;59.14
21988;BME280;11158;53.404;-1.510;2022-11-10T05:18:24;100028.09;;;16.19;58.48
21988;BME280;11158;53.404;-1.510;2022-11-10T05:20:51;100027.06;;;16.32;58.14
21988;BME280;11158;53.404;-1.510;2022-11-10T05:23:18;100028.56;;;16.70;56.60
21988;BME280;11158;53.404;-1.510;2022-11-10T05:26:14;100023.69;;;16.37;57.46
21988;BME280;11158;53.404;-1.510;2022-11-10T05:28:41;100030.50;;;15.97;59.36
21988;BME280;11158;53.404;-1.510;2022-11-10T05:31:08;100030.88;;;16.12;58.35
21988;BME280;11158;53.404;-1.510;2022-11-10T05:33:34;100036.44;;;15.87;59.88
21988;BME280;11158;53.404;-1.510;2022-11-10T05:36:01;100039.13;;;16.18;58.54
21988;BME280;11158;53.404;-1.510;2022-11-10T05:38:27;100046.75;;;15.90;60.44
21988;BME280;11158;53.404;-1.510;2022-11-10T05:40:53;100037.28;;;16.30;58.81
21988;BME280;11158;53.404;-1.510;2022-11-10T05:43:19;100040.81;;;16.00;59.90
21988;BME280;11158;53.404;-1.510;2022-11-10T05:45:44;100045.78;;;15.66;60.72
21988;BME280;11158;53.404;-1.510;2022-11-10T05:48:10;100035.47;;;15.82;60.91
21988;BME280;11158;53.404;-1.510;2022-11-10T05:50:36;100039.34;;;15.67;61.37
21988;BME280;11158;53.404;-1.510;2022-11-10T05:53:01;100053.44;;;15.33;62.95
21988;BME280;11158;53.404;-1.510;2022-11-10T05:55:27;100055.03;;;14.97;63.96
21988;BME280;11158;53.404;-1.510;2022-11-10T05:57:55;100051.75;;;15.13;63.70
21988;BME280;11158;53.404;-1.510;2022-11-10T06:00:26;100057.69;;;15.59;62.89
21988;BME280;11158;53.404;-1.510;2022-11-10T06:05:25;100036.00;;;16.02;60.88
21988;BME280;11158;53.404;-1.510;2022-11-10T06:07:51;100042.72;;;16.11;60.22
21988;BME280;11158;53.404;-1.510;2022-11-10T06:10:17;100048.84;;;16.61;58.90
21988;BME280;11158;53.404;-1.510;2022-11-10T06:12:42;100057.88;;;16.78;58.45
21988;BME280;11158;53.404;-1.510;2022-11-10T06:15:08;100051.78;;;16.71;58.23
21988;BME280;11158;53.404;-1.510;2022-11-10T06:17:39;100051.78;;;16.71;57.95
21988;BME280;11158;53.404;-1.510;2022-11-10T06:20:05;100051.31;;;16.74;57.96
21988;BME280;11158;53.404;-1.510;2022-11-10T06:22:31;100049.19;;;16.64;58.16
21988;BME280;11158;53.404;-1.510;2022-11-10T06:24:57;100036.28;;;16.54;58.35
21988;BME280;11158;53.404;-1.510;2022-11-10T06:27:22;100040.09;;;16.35;58.79
21988;BME280;11158;53.404;-1.510;2022-11-10T06:29:48;100042.16;;;16.21;59.58
21988;BME280;11158;53.404;-1.510;2022-11-10T06:32:14;100049.06;;;16.71;57.89
21988;BME280;11158;53.404;-1.510;2022-11-10T06:34:40;100039.72;;;16.20;58.96
21988;BME280;11158;53.404;-1.510;2022-11-10T06:37:05;100047.19;;;16.71;57.93
21988;BME280;11158;53.404;-1.510;2022-11-10T06:39:31;100061.50;;;16.18;59.31
21988;BME280;11158;53.404;-1.510;2022-11-10T06:41:58;100059.63;;;15.70;60.17
21988;BME280;11158;53.404;-1.510;2022-11-10T06:44:23;100068.59;;;16.01;60.11
21988;BME280;11158;53.404;-1.510;2022-11-10T06:46:49;100068.69;;;16.24;58.97
21988;BME280;11158;53.404;-1.510;2022-11-10T06:49:16;100080.47;;;16.11;58.87
21988;BME280;11158;53.404;-1.510;2022-11-10T06:51:41;100071.94;;;16.57;57.55
21988;BME280;11158;53.404;-1.510;2022-11-10T06:54:07;100076.94;;;15.81;59.68
21988;BME280;11158;53.404;-1.510;2022-11-10T06:56:33;100076.94;;;15.62;60.55
21988;BME280;11158;53.404;-1.510;2022-11-10T06:58:59;100063.28;;;15.94;59.30
21988;BME280;11158;53.404;-1.510;2022-11-10T07:01:25;100072.91;;;15.53;61.07
21988;BME280;11158;53.404;-1.510;2022-11-10T07:03:51;100080.38;;;15.33;61.55
21988;BME280;11158;53.404;-1.510;2022-11-10T07:06:18;100079.72;;;14.94;63.28
21988;BME280;11158;53.404;-1.510;2022-11-10T07:08:44;100070.63;;;15.50;61.11
21988;BME280;11158;53.404;-1.510;2022-11-10T07:11:10;100079.09;;;15.54;61.08
21988;BME280;11158;53.404;-1.510;2022-11-10T07:13:35;100084.03;;;15.57;60.44
21988;BME280;11158;53.404;-1.510;2022-11-10T07:16:05;100099.09;;;15.21;61.48
21988;BME280;11158;53.404;-1.510;2022-11-10T07:18:32;100098.16;;;15.34;61.78
21988;BME280;11158;53.404;-1.510;2022-11-10T07:21:01;100102.94;;;15.32;61.61
21988;BME280;11158;53.404;-1.510;2022-11-10T07:23:28;100084.09;;;15.68;60.38
21988;BME280;11158;53.404;-1.510;2022-11-10T07:25:53;100088.13;;;15.96;59.39
21988;BME280;11158;53.404;-1.510;2022-11-10T07:28:19;100097.63;;;15.62;60.63
21988;BME280;11158;53.404;-1.510;2022-11-10T07:30:45;100099.97;;;15.40;61.40
21988;BME280;11158;53.404;-1.510;2022-11-10T07:33:13;100099.84;;;15.90;59.66
21988;BME280;11158;53.404;-1.510;2022-11-10T07:35:39;100112.31;;;15.04;61.67
21988;BME280;11158;53.404;-1.510;2022-11-10T07:38:07;100106.72;;;15.49;61.14
21988;BME280;11158;53.404;-1.510;2022-11-10T07:40:33;100104.97;;;15.36;61.70
21988;BME280;11158;53.404;-1.510;2022-11-10T07:43:00;100110.41;;;15.29;61.87
21988;BME280;11158;53.404;-1.510;2022-11-10T07:45:27;100115.53;;;15.56;61.07
21988;BME280;11158;53.404;-1.510;2022-11-10T07:48:00;100126.09;;;15.39;61.41
21988;BME280;11158;53.404;-1.510;2022-11-10T07:50:27;100134.16;;;15.39;62.15
21988;BME280;11158;53.404;-1.510;2022-11-10T07:53:02;100135.72;;;15.47;61.67
21988;BME280;11158;53.404;-1.510;2022-11-10T07:55:27;100129.88;;;16.24;59.16
21988;BME280;11158;53.404;-1.510;2022-11-10T07:57:57;100138.63;;;15.70;60.49
21988;BME280;11158;53.404;-1.510;2022-11-10T08:00:24;100134.41;;;15.93;60.31
21988;BME280;11158;53.404;-1.510;2022-11-10T08:02:50;100136.16;;;16.06;60.06
21988;BME280;11158;53.404;-1.510;2022-11-10T08:05:17;100138.88;;;15.44;61.98
21988;BME280;11158;53.404;-1.510;2022-11-10T08:07:42;100137.69;;;16.13;60.69
21988;BME280;11158;53.404;-1.510;2022-11-10T08:10:08;100132.56;;;16.24;59.56
21988;BME280;11158;53.404;-1.510;2022-11-10T08:12:34;100126.41;;;15.86;60.61
21988;BME280;11158;53.404;-1.510;2022-11-10T08:15:00;100119.69;;;15.34;62.28
21988;BME280;11158;53.404;-1.510;2022-11-10T08:17:26;100137.34;;;15.29;62.96
21988;BME280;11158;53.404;-1.510;2022-11-10T08:19:51;100125.91;;;15.34;62.52
21988;BME280;11158;53.404;-1.510;2022-11-10T08:22:17;100141.50;;;15.25;63.75
21988;BME280;11158;53.404;-1.510;2022-11-10T08:24:42;100147.41;;;15.16;63.15
21988;BME280;11158;53.404;-1.510;2022-11-10T08:27:08;100155.19;;;15.49;62.83
21988;BME280;11158;53.404;-1.510;2022-11-10T08:29:34;100155.81;;;16.25;60.71
21988;BME280;11158;53.404;-1.510;2022-11-10T08:31:59;100156.53;;;16.62;59.03
21988;BME280;11158;53.404;-1.510;2022-11-10T08:34:25;100156.44;;;15.90;61.80
21988;BME280;11158;53.404;-1.510;2022-11-10T08:36:51;100148.78;;;15.87;61.37
21988;BME280;11158;53.404;-1.510;2022-11-10T08:39:18;100138.88;;;16.18;61.27
21988;BME280;11158;53.404;-1.510;2022-11-10T08:41:44;100151.31;;;16.49;60.32
21988;BME280;11158;53.404;-1.510;2022-11-10T08:44:09;100149.94;;;16.58;59.43
21988;BME280;11158;53.404;-1.510;2022-11-10T08:46:35;100141.22;;;16.44;60.09
21988;BME280;11158;53.404;-1.510;2022-11-10T08:49:02;100152.56;;;17.07;58.15
21988;BME280;11158;53.404;-1.510;2022-11-10T08:51:31;100158.78;;;17.43;57.60
21988;BME280;11158;53.404;-1.510;2022-11-10T08:53:57;100149.38;;;17.22;57.75
21988;BME280;11158;53.404;-1.510;2022-11-10T08:56:23;100159.56;;;16.54;58.90
21988;BME280;11158;53.404;-1.510;2022-11-10T08:58:49;100153.16;;;16.37;60.71
21988;BME280;11158;53.404;-1.510;2022-11-10T09:01:16;100167.16;;;16.45;60.46
21988;BME280;11158;53.404;-1.510;2022-11-10T09:03:43;100174.00;;;16.29;60.77
21988;BME280;11158;53.404;-1.510;2022-11-10T09:06:09;100168.47;;;16.85;59.35
21988;BME280;11158;53.404;-1.510;2022-11-10T09:08:35;100182.31;;;16.28;60.97
21988;BME280;11158;53.404;-1.510;2022-11-10T09:11:01;100181.66;;;16.44;60.44
21988;BME280;11158;53.404;-1.510;2022-11-10T09:13:30;100177.72;;;16.28;61.32
21988;BME280;11158;53.404;-1.510;2022-11-10T09:16:00;100174.22;;;16.28;60.96
21988;BME280;11158;53.404;-1.510;2022-11-10T09:18:26;100167.66;;;16.05;61.64
21988;BME280;11158;53.404;-1.510;2022-11-10T09:20:51;100169.56;;;16.35;60.54
21988;BME280;11158;53.404;-1.510;2022-11-10T09:23:18;100156.53;;;15.58;63.50
21988;BME280;11158;53.404;-1.510;2022-11-10T09:25:48;100155.38;;;16.40;61.45
21988;BME280;11158;53.404;-1.510;2022-11-10T09:28:15;100157.03;;;16.41;60.77
21988;BME280;11158;53.404;-1.510;2022-11-10T09:30:41;100168.13;;;16.32;61.07
21988;BME280;11158;53.404;-1.510;2022-11-10T09:33:07;100160.78;;;15.91;62.58
21988;BME280;11158;53.404;-1.510;2022-11-10T09:35:33;100174.25;;;16.40;61.53
21988;BME280;11158;53.404;-1.510;2022-11-10T09:37:59;100185.34;;;16.20;61.93
21988;BME280;11158;53.404;-1.510;2022-11-10T09:43:11;100208.03;;;16.61;60.91
21988;BME280;11158;53.404;-1.510;2022-11-10T09:45:41;100216.00;;;16.86;60.00
21988;BME280;11158;53.404;-1.510;2022-11-10T09:48:21;100224.56;;;16.16;62.13
21988;BME280;11158;53.404;-1.510;2022-11-10T09:50:57;100212.88;;;16.40;61.96
21988;BME280;11158;53.404;-1.510;2022-11-10T09:53:27;100211.38;;;16.26;61.93
21988;BME280;11158;53.404;-1.510;2022-11-10T09:56:01;100182.50;;;16.75;60.07
21988;BME280;11158;53.404;-1.510;2022-11-10T09:58:35;100187.91;;;16.75;60.13
21988;BME280;11158;53.404;-1.510;2022-11-10T10:04:20;100205.78;;;17.65;57.87
21988;BME280;11158;53.404;-1.510;2022-11-10T10:06:54;100211.88;;;17.61;57.37
21988;BME280;11158;53.404;-1.510;2022-11-10T10:11:53;100229.59;;;16.12;62.62
21988;BME280;11158;53.404;-1.510;2022-11-10T10:19:56;100242.31;;;16.72;60.50
21988;BME280;11158;53.404;-1.510;2022-11-10T10:24:58;100234.69;;;16.99;59.49
21988;BME280;11158;53.404;-1.510;2022-11-10T10:27:27;100234.78;;;17.34;58.78
21988;BME280;11158;53.404;-1.510;2022-11-10T10:29:53;100235.72;;;17.52;57.88
21988;BME280;11158;53.404;-1.510;2022-11-10T10:32:21;100231.41;;;17.39;58.35
21988;BME280;11158;53.404;-1.510;2022-11-10T10:34:47;100233.28;;;16.96;58.92
21988;BME280;11158;53.404;-1.510;2022-11-10T10:39:59;100242.22;;;16.48;60.35
21988;BME280;11158;53.404;-1.510;2022-11-10T10:42:33;100224.66;;;16.58;60.61
21988;BME280;11158;53.404;-1.510;2022-11-10T10:45:22;100235.38;;;16.64;60.56
21988;BME280;11158;53.404;-1.510;2022-11-10T10:47:51;100224.22;;;16.61;59.98
21988;BME280;11158;53.404;-1.510;2022-11-10T10:50:32;100242.81;;;17.53;58.10
21988;BME280;11158;53.404;-1.510;2022-11-10T10:53:16;100234.22;;;17.56;57.39
21988;BME280;11158;53.404;-1.510;2022-11-10T10:56:03;100225.88;;;17.46;57.56
21988;BME280;11158;53.404;-1.510;2022-11-10T10:58:33;100217.53;;;17.59;56.88
21988;BME280;11158;53.404;-1.510;2022-11-10T11:03:45;100210.66;;;16.98;58.69
21988;BME280;11158;53.404;-1.510;2022-11-10T11:11:41;100196.28;;;17.51;57.06
21988;BME280;11158;53.404;-1.510;2022-11-10T11:19:36;100210.28;;;17.83;56.49
21988;BME280;11158;53.404;-1.510;2022-11-10T11:30:20;100209.19;;;17.37;56.86
21988;BME280;11158;53.404;-1.510;2022-11-10T11:32:57;100223.56;;;17.85;55.66
21988;BME280;11158;53.404;-1.510;2022-11-10T11:38:49;100241.28;;;18.56;53.60
21988;BME280;11158;53.404;-1.510;2022-11-10T11:41:30;100233.91;;;17.10;57.45
21988;BME280;11158;53.404;-1.510;2022-11-10T11:44:35;100226.81;;;17.40;56.28
21988;BME280;11158;53.404;-1.510;2022-11-10T11:52:48;100253.88;;;17.87;55.08
21988;BME280;11158;53.404;-1.510;2022-11-10T11:55:38;100262.44;;;17.84;54.84
21988;BME280;11158;53.404;-1.510;2022-11-10T12:06:21;100257.16;;;17.89;54.92
21988;BME280;11158;53.404;-1.510;2022-11-10T12:14:05;100240.91;;;17.42;56.05
21988;BME280;11158;53.404;-1.510;2022-11-10T12:16:34;100252.59;;;17.12;57.96
21988;BME280;11158;53.404;-1.510;2022-11-10T12:19:06;100244.47;;;17.89;55.44
21988;BME280;11158;53.404;-1.510;2022-11-10T12:21:48;100255.31;;;18.41;54.22
21988;BME280;11158;53.404;-1.510;2022-11-10T12:27:03;100273.59;;;18.23;54.60
21988;BME280;11158;53.404;-1.510;2022-11-10T12:29:51;100259.59;;;17.78;55.39
21988;BME280;11158;53.404;-1.510;2022-11-10T12:32:36;100247.91;;;19.23;52.31
21988;BME280;11158;53.404;-1.510;2022-11-10T12:35:13;100257.38;;;17.75;55.41
21988;BME280;11158;53.404;-1.510;2022-11-10T12:37:57;100255.41;;;17.94;54.27
21988;BME280;11158;53.404;-1.510;2022-11-10T12:40:29;100262.50;;;18.36;53.77
21988;BME280;11158;53.404;-1.510;2022-11-10T12:43:00;100272.88;;;18.27;54.01
21988;BME280;11158;53.404;-1.510;2022-11-10T12:45:31;100267.56;;;18.32;54.00
21988;BME280;11158;53.404;-1.510;2022-11-10T12:48:02;100265.69;;;18.33;54.02
21988;BME280;11158;53.404;-1.510;2022-11-10T12:50:43;100271.25;;;17.91;54.67
21988;BME280;11158;53.404;-1.510;2022-11-10T12:53:14;100275.75;;;18.61;53.22
21988;BME280;11158;53.404;-1.510;2022-11-10T12:58:37;100261.41;;;17.85;55.35
21988;BME280;11158;53.404;-1.510;2022-11-10T13:01:12;100262.53;;;17.42;56.60
21988;BME280;11158;53.404;-1.510;2022-11-10T13:03:54;100267.41;;;17.87;55.17
21988;BME280;11158;53.404;-1.510;2022-11-10T13:06:31;100269.97;;;18.05;54.88
21988;BME280;11158;53.404;-1.510;2022-11-10T13:09:00;100275.53;;;17.87;55.83
21988;BME280;11158;53.404;-1.510;2022-11-10T13:11:33;100280.34;;;17.85;55.28
21988;BME280;11158;53.404;-1.510;2022-11-10T13:14:02;100272.53;;;17.76;56.26
21988;BME280;11158;53.404;-1.510;2022-11-10T13:19:03;100276.03;;;18.36;54.96
21988;BME280;11158;53.404;-1.510;2022-11-10T13:31:58;100281.13;;;18.09;55.05
21988;BME280;11158;53.404;-1.510;2022-11-10T13:34:32;100281.13;;;18.20;54.32
21988;BME280;11158;53.404;-1.510;2022-11-10T13:36:58;100289.13;;;18.04;55.48
21988;BME280;11158;53.404;-1.510;2022-11-10T13:39:28;100284.06;;;18.31;54.26
21988;BME280;11158;53.404;-1.510;2022-11-10T13:44:35;100282.88;;;18.79;52.82
21988;BME280;11158;53.404;-1.510;2022-11-10T13:49:45;100291.88;;;19.93;49.99
21988;BME280;11158;53.404;-1.510;2022-11-10T13:52:16;100286.94;;;19.39;51.08
21988;BME280;11158;53.404;-1.510;2022-11-10T13:55:01;100299.50;;;18.59;53.11
21988;BME280;11158;53.404;-1.510;2022-11-10T13:57:34;100306.16;;;18.39;53.91
21988;BME280;11158;53.404;-1.510;2022-11-10T14:00:05;100308.31;;;18.26;54.19
21988;BME280;11158;53.404;-1.510;2022-11-10T14:02:50;100323.41;;;17.79;55.72
21988;BME280;11158;53.404;-1.510;2022-11-10T14:08:16;100315.38;;;17.37;56.98
21988;BME280;11158;53.404;-1.510;2022-11-10T14:10:50;100318.84;;;17.80;55.65
21988;BME280;11158;53.404;-1.510;2022-11-10T14:15:52;100309.88;;;17.44;56.72
21988;BME280;11158;53.404;-1.510;2022-11-10T14:18:27;100312.00;;;17.66;55.62
21988;BME280;11158;53.404;-1.510;2022-11-10T14:20:59;100309.66;;;17.57;55.82
21988;BME280;11158;53.404;-1.510;2022-11-10T14:23:46;100333.59;;;17.96;55.27
21988;BME280;11158;53.404;-1.510;2022-11-10T14:26:23;100322.16;;;18.29;54.50
21988;BME280;11158;53.404;-1.510;2022-11-10T14:28:51;100305.66;;;18.54;53.70
21988;BME280;11158;53.404;-1.510;2022-11-10T14:31:24;100315.34;;;19.36;52.14